Time;durP1;ratioP1;P1;durP2;ratioP2;P2;SDS_P1;SDS_P2;PMS_P1;PMS_P2;Temp;Humidity;BMP_temperature;BMP_pressure;BME280_temperature;BME280_humidity;BME280_pressure;Samples;Min_cycle;Max_cycle;Signal;HPM_P1;HPM_P2
2022/08/28 00:00:31;;;;;;;6.47;4.70;;;;;;;;;;5092696;27;20028;-75
2022/08/28 00:02:58;;;;;;;5.82;4.50;;;;;;;;;;5094136;27;20100;-73
2022/08/28 00:05:25;;;;;;;5.00;4.40;;;;;;;;;;5091680;27;20137;-75
2022/08/28 00:07:51;;;;;;;5.95;4.60;;;;;;;;;;5097634;27;20035;-74
2022/08/28 00:10:19;;;;;;;8.18;4.85;;;;;;;;;;5091039;28;20020;-71
2022/08/28 00:12:46;;;;;;;5.18;4.15;;;;;;;;;;5093319;28;20102;-74
2022/08/28 00:15:14;;;;;;;5.65;4.50;;;;;;;;;;5104013;28;20024;-74
2022/08/28 00:17:41;;;;;;;6.03;4.53;;;;;;;;;;5092012;28;20114;-71
2022/08/28 00:20:09;;;;;;;6.15;4.65;;;;;;;;;;5095653;28;20050;-73
2022/08/28 00:22:37;;;;;;;8.40;4.38;;;;;;;;;;5093568;28;20028;-73
2022/08/28 00:25:04;;;;;;;4.40;4.00;;;;;;;;;;5094292;28;20035;-72
2022/08/28 00:30:15;;;;;;;5.70;4.53;;;;;;;;;;5099453;28;20367;-74
2022/08/28 00:32:41;;;;;;;4.93;4.03;;;;;;;;;;5104399;28;20016;-74
2022/08/28 00:35:08;;;;;;;4.90;4.35;;;;;;;;;;5095788;28;20023;-74
2022/08/28 00:37:34;;;;;;;5.05;4.25;;;;;;;;;;5098971;28;20050;-73
2022/08/28 00:40:00;;;;;;;6.07;4.32;;;;;;;;;;5092142;28;20093;-72
2022/08/28 00:42:26;;;;;;;5.88;4.47;;;;;;;;;;5093933;28;20407;-71
2022/08/28 00:44:53;;;;;;;5.57;4.40;;;;;;;;;;5095183;28;20028;-70
2022/08/28 00:47:19;;;;;;;5.13;4.55;;;;;;;;;;5100594;28;20114;-71
2022/08/28 00:49:49;;;;;;;6.30;4.57;;;;;;;;;;5101243;28;20119;-70
2022/08/28 00:52:16;;;;;;;5.63;4.47;;;;;;;;;;5097432;28;20084;-71
2022/08/28 00:54:45;;;;;;;6.63;4.03;;;;;;;;;;5091779;28;20032;-73
2022/08/28 00:57:14;;;;;;;4.78;4.00;;;;;;;;;;5097581;28;20059;-72
2022/08/28 00:59:41;;;;;;;5.05;4.30;;;;;;;;;;5090550;28;20476;-71
2022/08/28 01:02:07;;;;;;;5.15;4.65;;;;;;;;;;5099975;28;20019;-70
2022/08/28 01:04:34;;;;;;;6.72;4.90;;;;;;;;;;5093040;28;20807;-70
2022/08/28 01:07:01;;;;;;;5.80;4.70;;;;;;;;;;5091336;28;20036;-70
2022/08/28 01:09:30;;;;;;;6.55;4.50;;;;;;;;;;5090270;28;20398;-72
2022/08/28 01:12:02;;;;;;;6.32;4.43;;;;;;;;;;5097032;28;20023;-70
2022/08/28 01:14:29;;;;;;;5.03;4.20;;;;;;;;;;5092924;28;20130;-73
2022/08/28 01:16:56;;;;;;;7.20;4.57;;;;;;;;;;5091736;28;20191;-71
2022/08/28 01:19:26;;;;;;;4.05;3.65;;;;;;;;;;5092522;28;20035;-70
2022/08/28 01:22:00;;;;;;;6.70;4.75;;;;;;;;;;5088811;28;20024;-73
2022/08/28 01:24:26;;;;;;;5.68;3.80;;;;;;;;;;5094774;28;20027;-74
2022/08/28 01:26:53;;;;;;;7.57;4.30;;;;;;;;;;5096710;27;20487;-71
2022/08/28 01:29:19;;;;;;;5.55;4.13;;;;;;;;;;5096040;27;20201;-72
2022/08/28 01:31:47;;;;;;;4.68;3.75;;;;;;;;;;5086959;27;20032;-77
2022/08/28 01:34:14;;;;;;;5.10;4.43;;;;;;;;;;5093586;27;20536;-72
2022/08/28 01:36:41;;;;;;;5.75;4.70;;;;;;;;;;5090182;27;20043;-75
2022/08/28 01:39:13;;;;;;;7.15;4.03;;;;;;;;;;5092950;27;20030;-74
2022/08/28 01:41:47;;;;;;;6.78;4.20;;;;;;;;;;5097484;27;20143;-73
2022/08/28 01:44:14;;;;;;;4.63;3.75;;;;;;;;;;5087701;27;20055;-70
2022/08/28 01:46:41;;;;;;;4.88;4.38;;;;;;;;;;5091132;27;20156;-71
2022/08/28 01:49:10;;;;;;;5.75;4.30;;;;;;;;;;5092767;27;20169;-70
2022/08/28 01:51:37;;;;;;;6.82;4.47;;;;;;;;;;5094229;27;20091;-70
2022/08/28 01:54:03;;;;;;;5.60;4.47;;;;;;;;;;5100048;27;20027;-71
2022/08/28 01:56:29;;;;;;;5.18;4.03;;;;;;;;;;5088144;27;20022;-71
2022/08/28 01:58:56;;;;;;;6.22;4.40;;;;;;;;;;5095480;28;20502;-70
2022/08/28 02:01:22;;;;;;;4.75;3.90;;;;;;;;;;5091707;27;20047;-70
2022/08/28 02:03:48;;;;;;;4.45;4.05;;;;;;;;;;5088299;27;20031;-70
2022/08/28 02:06:15;;;;;;;4.80;4.22;;;;;;;;;;5097699;27;20044;-71
2022/08/28 02:08:41;;;;;;;4.35;3.90;;;;;;;;;;5087817;27;20063;-71
2022/08/28 02:11:09;;;;;;;5.03;4.10;;;;;;;;;;5101806;27;20015;-70
2022/08/28 02:13:35;;;;;;;5.22;4.40;;;;;;;;;;5090026;27;20447;-71
2022/08/28 02:16:02;;;;;;;4.57;3.92;;;;;;;;;;5088450;27;20448;-70
2022/08/28 02:18:29;;;;;;;4.50;4.07;;;;;;;;;;5101170;27;20020;-71
2022/08/28 02:20:55;;;;;;;4.22;3.83;;;;;;;;;;5088743;27;20027;-71
2022/08/28 02:23:21;;;;;;;5.43;4.13;;;;;;;;;;5093156;27;20024;-70
2022/08/28 02:25:47;;;;;;;6.72;4.20;;;;;;;;;;5092483;27;20107;-70
2022/08/28 02:28:13;;;;;;;4.63;3.95;;;;;;;;;;5089557;27;22047;-71
2022/08/28 02:30:40;;;;;;;5.65;4.00;;;;;;;;;;5099427;27;20007;-70
2022/08/28 02:33:06;;;;;;;4.95;4.10;;;;;;;;;;5092487;27;20032;-70
2022/08/28 02:35:33;;;;;;;11.50;4.55;;;;;;;;;;5094001;27;20024;-70
2022/08/28 02:38:00;;;;;;;5.72;4.53;;;;;;;;;;5094083;27;20110;-70
2022/08/28 02:40:26;;;;;;;4.80;4.30;;;;;;;;;;5088923;27;20096;-71
2022/08/28 02:42:53;;;;;;;4.85;4.13;;;;;;;;;;5089491;27;20020;-71
2022/08/28 02:45:20;;;;;;;6.35;4.88;;;;;;;;;;5097875;27;20027;-71
2022/08/28 02:47:46;;;;;;;7.75;4.65;;;;;;;;;;5092111;28;20039;-78
2022/08/28 02:50:14;;;;;;;6.50;5.03;;;;;;;;;;5093537;27;20023;-74
2022/08/28 02:52:40;;;;;;;7.72;4.80;;;;;;;;;;5089278;27;20036;-71
2022/08/28 02:55:07;;;;;;;7.75;5.30;;;;;;;;;;5088492;27;20127;-72
2022/08/28 02:57:34;;;;;;;5.90;5.07;;;;;;;;;;5091228;27;20132;-76
2022/08/28 03:00:01;;;;;;;6.50;5.68;;;;;;;;;;5094225;27;20756;-71
2022/08/28 03:02:27;;;;;;;7.10;5.78;;;;;;;;;;5090928;27;20572;-72
2022/08/28 03:04:54;;;;;;;6.03;5.43;;;;;;;;;;5084869;27;20106;-73
2022/08/28 03:07:21;;;;;;;6.50;5.50;;;;;;;;;;5094764;27;20051;-72
2022/08/28 03:09:48;;;;;;;6.85;6.15;;;;;;;;;;5093754;27;20027;-70
2022/08/28 03:12:15;;;;;;;7.63;6.25;;;;;;;;;;5098100;27;20808;-72
2022/08/28 03:14:42;;;;;;;6.53;5.80;;;;;;;;;;5089250;27;20156;-71
2022/08/28 03:17:09;;;;;;;7.43;5.95;;;;;;;;;;5090807;27;20384;-71
2022/08/28 03:19:35;;;;;;;6.20;5.53;;;;;;;;;;5087494;28;20023;-71
2022/08/28 03:22:01;;;;;;;6.57;5.90;;;;;;;;;;5085961;27;20074;-72
2022/08/28 03:24:27;;;;;;;6.15;5.55;;;;;;;;;;5088082;28;20461;-71
2022/08/28 03:26:53;;;;;;;6.40;5.80;;;;;;;;;;5091027;28;20110;-72
2022/08/28 03:29:20;;;;;;;5.70;5.05;;;;;;;;;;5087138;27;20146;-71
2022/08/28 03:31:46;;;;;;;6.65;5.90;;;;;;;;;;5092552;27;20031;-71
2022/08/28 03:34:12;;;;;;;6.80;5.80;;;;;;;;;;5094099;27;20026;-71
2022/08/28 03:36:38;;;;;;;6.35;5.57;;;;;;;;;;5090400;27;20072;-71
2022/08/28 03:39:06;;;;;;;6.72;5.88;;;;;;;;;;5087268;27;20110;-71
2022/08/28 03:41:32;;;;;;;6.78;6.18;;;;;;;;;;5088458;28;20136;-71
2022/08/28 03:44:00;;;;;;;5.88;5.28;;;;;;;;;;5095030;27;20024;-73
2022/08/28 03:46:26;;;;;;;5.55;5.05;;;;;;;;;;5091819;27;20028;-73
2022/08/28 03:48:53;;;;;;;5.72;5.13;;;;;;;;;;5084441;27;20139;-71
2022/08/28 03:51:21;;;;;;;8.40;5.97;;;;;;;;;;5093020;27;20026;-71
2022/08/28 03:53:48;;;;;;;6.55;5.13;;;;;;;;;;5090016;27;20028;-71
2022/08/28 03:56:16;;;;;;;6.45;5.43;;;;;;;;;;5085571;28;20028;-73
2022/08/28 03:58:43;;;;;;;8.73;5.63;;;;;;;;;;5090614;28;20080;-73
2022/08/28 04:01:09;;;;;;;5.82;5.30;;;;;;;;;;5082951;28;20020;-71
2022/08/28 04:03:36;;;;;;;6.10;5.50;;;;;;;;;;5086718;28;20078;-76
2022/08/28 04:06:02;;;;;;;6.05;4.97;;;;;;;;;;5087634;27;20103;-74
2022/08/28 04:08:28;;;;;;;6.07;5.40;;;;;;;;;;5094547;27;20103;-76
2022/08/28 04:10:55;;;;;;;6.75;5.07;;;;;;;;;;5088731;28;20548;-71
2022/08/28 04:13:22;;;;;;;8.00;6.00;;;;;;;;;;5090954;28;20475;-71
2022/08/28 04:15:59;;;;;;;5.45;4.95;;;;;;;;;;5097908;27;20032;-71
2022/08/28 04:18:26;;;;;;;8.50;5.85;;;;;;;;;;5087987;28;20031;-71
2022/08/28 04:21:07;;;;;;;6.30;5.15;;;;;;;;;;5093681;28;20601;-71
2022/08/28 04:23:34;;;;;;;5.90;5.30;;;;;;;;;;5102482;28;20111;-71
2022/08/28 04:26:00;;;;;;;8.40;5.82;;;;;;;;;;5082605;28;20020;-77
2022/08/28 04:28:26;;;;;;;7.45;5.38;;;;;;;;;;5088051;28;20169;-76
2022/08/28 04:30:53;;;;;;;8.35;5.72;;;;;;;;;;5093930;28;20024;-71
2022/08/28 04:33:20;;;;;;;5.63;5.10;;;;;;;;;;5091203;28;20598;-73
2022/08/28 04:35:47;;;;;;;6.35;5.47;;;;;;;;;;5089294;28;20169;-72
2022/08/28 04:38:13;;;;;;;8.68;5.50;;;;;;;;;;5086707;28;20024;-72
2022/08/28 04:40:40;;;;;;;7.85;5.38;;;;;;;;;;5095078;28;20044;-71
2022/08/28 04:43:06;;;;;;;14.27;5.55;;;;;;;;;;5084315;28;20023;-76
2022/08/28 04:45:32;;;;;;;8.02;5.65;;;;;;;;;;5089970;28;20030;-75
2022/08/28 04:47:59;;;;;;;8.05;4.90;;;;;;;;;;5086763;28;20070;-77
2022/08/28 04:50:25;;;;;;;6.15;5.50;;;;;;;;;;5086445;28;20020;-73
2022/08/28 04:52:51;;;;;;;6.15;5.40;;;;;;;;;;5083055;28;20047;-72
2022/08/28 04:55:17;;;;;;;5.93;5.32;;;;;;;;;;5080922;28;20028;-76
2022/08/28 04:57:43;;;;;;;5.53;5.00;;;;;;;;;;5084657;28;20028;-78
2022/08/28 05:00:10;;;;;;;6.40;5.75;;;;;;;;;;5096147;28;20016;-75
2022/08/28 05:02:37;;;;;;;6.40;5.32;;;;;;;;;;5089780;28;20044;-77
2022/08/28 05:05:03;;;;;;;5.90;4.53;;;;;;;;;;5087823;28;20039;-72
2022/08/28 05:07:30;;;;;;;6.03;5.40;;;;;;;;;;5090340;28;20400;-73
2022/08/28 05:09:56;;;;;;;7.13;5.45;;;;;;;;;;5091005;28;20027;-76
2022/08/28 05:12:22;;;;;;;8.05;5.72;;;;;;;;;;5089483;28;20476;-78
2022/08/28 05:14:49;;;;;;;6.07;5.15;;;;;;;;;;5093267;28;20023;-76
2022/08/28 05:17:15;;;;;;;6.38;5.75;;;;;;;;;;5090685;28;20020;-76
2022/08/28 05:19:42;;;;;;;5.90;5.40;;;;;;;;;;5089966;28;20419;-77
2022/08/28 05:22:09;;;;;;;6.35;5.47;;;;;;;;;;5087047;28;20107;-72
2022/08/28 05:24:39;;;;;;;6.28;5.68;;;;;;;;;;5089919;28;20015;-77
2022/08/28 05:27:06;;;;;;;5.97;5.28;;;;;;;;;;5088490;28;20024;-72
2022/08/28 05:29:32;;;;;;;7.60;5.10;;;;;;;;;;5085159;28;20020;-73
2022/08/28 05:31:58;;;;;;;9.02;5.35;;;;;;;;;;5089407;28;20047;-77
2022/08/28 05:34:25;;;;;;;5.88;5.28;;;;;;;;;;5084856;28;20085;-73
2022/08/28 05:36:51;;;;;;;7.07;5.60;;;;;;;;;;5093554;28;20109;-77
2022/08/28 05:39:17;;;;;;;5.80;5.30;;;;;;;;;;5089768;28;20024;-77
2022/08/28 05:41:44;;;;;;;7.03;5.05;;;;;;;;;;5091926;27;20080;-77
2022/08/28 05:44:11;;;;;;;5.78;5.18;;;;;;;;;;5096006;27;20032;-75
2022/08/28 05:46:39;;;;;;;7.13;5.93;;;;;;;;;;5090944;27;20030;-75
2022/08/28 05:49:06;;;;;;;7.55;5.40;;;;;;;;;;5092922;27;20579;-71
2022/08/28 05:51:33;;;;;;;6.18;5.30;;;;;;;;;;5094210;27;20043;-72
2022/08/28 05:54:00;;;;;;;5.57;5.07;;;;;;;;;;5086264;27;20019;-73
2022/08/28 05:56:31;;;;;;;6.65;5.95;;;;;;;;;;5090102;27;20536;-73
2022/08/28 05:58:59;;;;;;;9.57;6.70;;;;;;;;;;5087726;27;20404;-73
2022/08/28 06:01:27;;;;;;;7.25;5.93;;;;;;;;;;5091056;28;20114;-73
2022/08/28 06:03:56;;;;;;;6.90;5.13;;;;;;;;;;5089522;27;20027;-73
2022/08/28 06:06:23;;;;;;;8.25;5.80;;;;;;;;;;5088012;27;20012;-72
2022/08/28 06:08:50;;;;;;;8.20;6.22;;;;;;;;;;5094566;27;20060;-73
2022/08/28 06:11:19;;;;;;;8.02;6.20;;;;;;;;;;5087123;27;20046;-73
2022/08/28 06:13:45;;;;;;;10.32;5.85;;;;;;;;;;5100306;27;20906;-73
2022/08/28 06:16:12;;;;;;;8.02;5.93;;;;;;;;;;5073467;28;20525;-73
2022/08/28 06:18:39;;;;;;;7.00;5.85;;;;;;;;;;5081771;27;20580;-72
2022/08/28 06:21:05;;;;;;;7.95;5.70;;;;;;;;;;5093468;27;20048;-73
2022/08/28 06:23:31;;;;;;;5.80;4.72;;;;;;;;;;5090973;27;20043;-73
2022/08/28 06:25:58;;;;;;;7.07;5.72;;;;;;;;;;5095234;27;20030;-73
2022/08/28 06:28:25;;;;;;;6.90;4.93;;;;;;;;;;5087541;27;20053;-75
2022/08/28 06:30:52;;;;;;;5.72;4.90;;;;;;;;;;5088093;27;20027;-77
2022/08/28 06:33:20;;;;;;;7.07;4.97;;;;;;;;;;5090709;27;20669;-73
2022/08/28 06:35:51;;;;;;;6.72;5.00;;;;;;;;;;5084537;27;20106;-73
2022/08/28 06:38:17;;;;;;;7.40;5.45;;;;;;;;;;5084775;27;20024;-80
2022/08/28 06:40:46;;;;;;;6.30;5.22;;;;;;;;;;5081415;27;20147;-72
2022/08/28 06:43:12;;;;;;;5.50;5.00;;;;;;;;;;5089008;28;20035;-72
2022/08/28 06:45:42;;;;;;;5.32;4.82;;;;;;;;;;5088623;28;20081;-72
2022/08/28 06:48:10;;;;;;;5.82;4.70;;;;;;;;;;5085825;28;20036;-72
2022/08/28 06:50:40;;;;;;;6.75;4.97;;;;;;;;;;5086127;28;20498;-76
2022/08/28 06:53:07;;;;;;;5.65;4.97;;;;;;;;;;5085745;28;20059;-72
2022/08/28 06:55:34;;;;;;;5.30;4.80;;;;;;;;;;5085565;28;20012;-72
2022/08/28 06:58:00;;;;;;;5.80;4.53;;;;;;;;;;5089952;27;20028;-72
2022/08/28 07:00:26;;;;;;;5.50;4.53;;;;;;;;;;5083037;28;20085;-72
2022/08/28 07:02:52;;;;;;;5.88;4.28;;;;;;;;;;5085893;28;20123;-72
2022/08/28 07:05:19;;;;;;;4.70;3.88;;;;;;;;;;5089439;28;20098;-72
2022/08/28 07:07:45;;;;;;;6.75;4.25;;;;;;;;;;5088222;28;20038;-72
2022/08/28 07:10:11;;;;;;;4.45;3.97;;;;;;;;;;5088805;28;20042;-72
2022/08/28 07:12:38;;;;;;;6.00;4.45;;;;;;;;;;5088528;28;20539;-73
2022/08/28 07:15:05;;;;;;;5.15;4.38;;;;;;;;;;5084871;28;20020;-73
2022/08/28 07:17:31;;;;;;;10.68;4.53;;;;;;;;;;5082001;28;20024;-73
2022/08/28 07:19:58;;;;;;;6.28;4.65;;;;;;;;;;5071206;28;20051;-73
2022/08/28 07:22:25;;;;;;;6.22;4.50;;;;;;;;;;5082287;28;20039;-73
2022/08/28 07:24:53;;;;;;;4.75;4.05;;;;;;;;;;5081738;28;20108;-73
2022/08/28 07:27:20;;;;;;;4.65;4.25;;;;;;;;;;5087829;28;20032;-73
2022/08/28 07:29:47;;;;;;;6.15;4.35;;;;;;;;;;5086135;28;20031;-73
2022/08/28 07:32:14;;;;;;;6.10;4.35;;;;;;;;;;5088254;28;20020;-76
2022/08/28 07:34:41;;;;;;;5.82;4.20;;;;;;;;;;5081589;28;20239;-73
2022/08/28 07:37:07;;;;;;;6.75;4.30;;;;;;;;;;5083168;28;20135;-73
2022/08/28 07:39:34;;;;;;;5.05;3.85;;;;;;;;;;5083157;28;20059;-73
2022/08/28 07:42:00;;;;;;;7.70;4.10;;;;;;;;;;5087708;28;20127;-73
2022/08/28 07:47:12;;;;;;;5.65;4.40;;;;;;;;;;5082388;28;21366;-74
2022/08/28 07:49:39;;;;;;;6.28;4.00;;;;;;;;;;5085972;28;20043;-73
2022/08/28 07:52:06;;;;;;;4.30;3.80;;;;;;;;;;5085991;28;20023;-73
2022/08/28 07:54:34;;;;;;;5.78;4.05;;;;;;;;;;5086792;28;20656;-73
2022/08/28 07:57:01;;;;;;;5.57;4.35;;;;;;;;;;5083089;28;20119;-73
2022/08/28 07:59:28;;;;;;;5.18;3.85;;;;;;;;;;5082892;28;20020;-73
2022/08/28 08:01:55;;;;;;;5.10;3.80;;;;;;;;;;5085500;28;20060;-73
2022/08/28 08:04:22;;;;;;;4.40;3.95;;;;;;;;;;5085181;28;20027;-73
2022/08/28 08:06:49;;;;;;;4.60;4.13;;;;;;;;;;5070013;28;20038;-73
2022/08/28 08:09:16;;;;;;;6.05;4.07;;;;;;;;;;5083037;28;20607;-73
2022/08/28 08:11:43;;;;;;;5.90;4.05;;;;;;;;;;5085001;28;20034;-73
2022/08/28 08:14:09;;;;;;;5.78;3.97;;;;;;;;;;5085159;28;20583;-73
2022/08/28 08:16:37;;;;;;;4.57;4.18;;;;;;;;;;5086395;28;20024;-73
2022/08/28 08:19:04;;;;;;;4.78;3.97;;;;;;;;;;5081469;28;20046;-73
2022/08/28 08:21:31;;;;;;;4.32;3.92;;;;;;;;;;5089610;28;20032;-73
2022/08/28 08:23:58;;;;;;;7.07;4.32;;;;;;;;;;5087951;28;20024;-73
2022/08/28 08:26:26;;;;;;;6.25;5.22;;;;;;;;;;5090141;28;20031;-73
2022/08/28 08:28:53;;;;;;;5.80;4.80;;;;;;;;;;5086757;28;20042;-73
2022/08/28 08:31:22;;;;;;;4.85;4.35;;;;;;;;;;5085412;28;20410;-74
2022/08/28 08:33:53;;;;;;;6.38;5.18;;;;;;;;;;5088148;28;20107;-73
2022/08/28 08:36:20;;;;;;;5.45;4.57;;;;;;;;;;5089063;28;20137;-74
2022/08/28 08:38:46;;;;;;;5.93;4.65;;;;;;;;;;5089710;27;20424;-75
2022/08/28 08:41:18;;;;;;;6.65;4.88;;;;;;;;;;5085641;28;20052;-73
2022/08/28 08:43:52;;;;;;;4.60;4.20;;;;;;;;;;5072978;28;20028;-73
2022/08/28 08:46:19;;;;;;;6.18;5.03;;;;;;;;;;5088149;28;20019;-73
2022/08/28 08:48:46;;;;;;;5.95;4.43;;;;;;;;;;5092690;28;20116;-73
2022/08/28 08:51:23;;;;;;;5.53;4.68;;;;;;;;;;5084601;28;20031;-73
2022/08/28 08:54:07;;;;;;;4.80;4.30;;;;;;;;;;5085500;28;20115;-73
2022/08/28 08:56:33;;;;;;;6.53;4.68;;;;;;;;;;5070264;28;20055;-73
2022/08/28 08:59:02;;;;;;;7.57;4.78;;;;;;;;;;5093971;28;20028;-74
2022/08/28 09:01:29;;;;;;;10.63;5.00;;;;;;;;;;5093617;28;20106;-73
2022/08/28 09:04:08;;;;;;;5.68;4.35;;;;;;;;;;5089241;28;20778;-73
2022/08/28 09:06:43;;;;;;;5.45;4.65;;;;;;;;;;5096178;28;20632;-73
2022/08/28 09:09:28;;;;;;;5.60;4.63;;;;;;;;;;5088002;28;20074;-73
2022/08/28 09:11:57;;;;;;;6.15;5.07;;;;;;;;;;5089238;28;20025;-72
2022/08/28 09:14:23;;;;;;;8.05;4.82;;;;;;;;;;5091753;28;20021;-73
2022/08/28 09:16:50;;;;;;;9.60;4.70;;;;;;;;;;5089943;28;20881;-73
2022/08/28 09:19:20;;;;;;;5.82;4.80;;;;;;;;;;5086371;28;20028;-73
2022/08/28 09:21:47;;;;;;;6.03;5.43;;;;;;;;;;5087347;28;20551;-73
2022/08/28 09:24:22;;;;;;;6.63;4.43;;;;;;;;;;5086481;28;20051;-73
2022/08/28 09:26:54;;;;;;;6.05;4.53;;;;;;;;;;5089245;28;20360;-73
2022/08/28 09:29:25;;;;;;;6.78;5.07;;;;;;;;;;5085488;28;20028;-73
2022/08/28 09:31:51;;;;;;;4.82;4.35;;;;;;;;;;5086966;28;20027;-72
2022/08/28 09:34:18;;;;;;;5.57;4.45;;;;;;;;;;5086119;28;20543;-73
2022/08/28 09:36:44;;;;;;;5.70;4.90;;;;;;;;;;5088894;28;20054;-73
2022/08/28 09:39:16;;;;;;;7.32;4.57;;;;;;;;;;5087315;28;20024;-72
2022/08/28 09:44:51;;;;;;;5.55;4.50;;;;;;;;;;5092524;28;20191;-72
2022/08/28 09:47:37;;;;;;;5.73;4.50;;;;;;;;;;5087347;28;20315;-73
2022/08/28 09:50:27;;;;;;;5.15;4.65;;;;;;;;;;5085279;28;20033;-73
2022/08/28 09:52:55;;;;;;;4.97;4.50;;;;;;;;;;5077599;28;20085;-73
2022/08/28 09:55:35;;;;;;;6.22;4.45;;;;;;;;;;5086750;28;20448;-73
2022/08/28 09:58:02;;;;;;;5.30;4.72;;;;;;;;;;5087084;28;20103;-73
2022/08/28 10:00:31;;;;;;;5.70;4.60;;;;;;;;;;5089962;28;20023;-72
2022/08/28 10:03:17;;;;;;;5.10;4.60;;;;;;;;;;5087930;28;20099;-73
2022/08/28 10:05:51;;;;;;;6.25;4.50;;;;;;;;;;5087629;27;20028;-72
2022/08/28 10:08:27;;;;;;;4.82;4.35;;;;;;;;;;5093082;28;20035;-73
2022/08/28 10:10:55;;;;;;;5.57;4.97;;;;;;;;;;5090496;28;20410;-73
2022/08/28 10:13:32;;;;;;;7.70;4.68;;;;;;;;;;5091848;28;20403;-73
2022/08/28 10:15:59;;;;;;;5.53;4.50;;;;;;;;;;5084967;28;20103;-75
2022/08/28 10:18:28;;;;;;;7.00;4.28;;;;;;;;;;5090551;28;20088;-73
2022/08/28 10:20:54;;;;;;;4.72;3.90;;;;;;;;;;5090496;28;20106;-73
2022/08/28 10:23:35;;;;;;;5.03;3.92;;;;;;;;;;5096434;28;20020;-73
2022/08/28 10:26:04;;;;;;;4.95;4.10;;;;;;;;;;5069530;28;20034;-73
2022/08/28 10:28:42;;;;;;;5.15;4.35;;;;;;;;;;5097863;28;20114;-73
2022/08/28 10:31:14;;;;;;;5.45;4.43;;;;;;;;;;5090368;28;20095;-73
2022/08/28 10:34:07;;;;;;;7.93;3.88;;;;;;;;;;5086523;28;20022;-73
2022/08/28 10:36:34;;;;;;;3.72;3.10;;;;;;;;;;5070729;28;20035;-73
2022/08/28 10:39:16;;;;;;;5.22;4.05;;;;;;;;;;5088997;28;20047;-72
2022/08/28 10:41:42;;;;;;;;;;;;;;;;;;5093529;28;20633;-72
2022/08/28 10:44:09;;;;;;;5.85;3.80;;;;;;;;;;5092671;28;19904;-73
2022/08/28 10:46:46;;;;;;;6.50;3.92;;;;;;;;;;5096135;28;20034;-73
2022/08/28 10:49:26;;;;;;;5.50;3.53;;;;;;;;;;5099914;28;20046;-72
2022/08/28 10:51:55;;;;;;;7.23;3.67;;;;;;;;;;5095434;28;20027;-73
2022/08/28 10:54:27;;;;;;;4.75;3.88;;;;;;;;;;5085059;28;20101;-73
2022/08/28 10:56:58;;;;;;;4.63;4.18;;;;;;;;;;5074318;28;20559;-73
2022/08/28 10:59:26;;;;;;;5.70;3.92;;;;;;;;;;5092357;28;20016;-72
2022/08/28 11:01:52;;;;;;;4.80;4.10;;;;;;;;;;5092017;28;20043;-73
2022/08/28 11:04:20;;;;;;;4.95;3.70;;;;;;;;;;5088211;28;20591;-73
2022/08/28 11:06:55;;;;;;;5.32;3.85;;;;;;;;;;5093627;28;20070;-73
2022/08/28 11:09:45;;;;;;;5.43;3.45;;;;;;;;;;5092594;28;20039;-72
2022/08/28 11:12:18;;;;;;;5.78;3.85;;;;;;;;;;5093029;28;20022;-73
2022/08/28 11:14:46;;;;;;;4.22;3.80;;;;;;;;;;5095682;28;20518;-73
2022/08/28 11:17:12;;;;;;;6.47;4.10;;;;;;;;;;5080904;28;20042;-73
2022/08/28 11:19:49;;;;;;;5.97;3.38;;;;;;;;;;5091223;28;20049;-73
2022/08/28 11:22:19;;;;;;;6.47;4.35;;;;;;;;;;5092296;28;20566;-73
2022/08/28 11:24:51;;;;;;;6.95;4.25;;;;;;;;;;5090893;28;20028;-73
2022/08/28 11:27:28;;;;;;;4.95;4.25;;;;;;;;;;5091021;28;20047;-72
2022/08/28 11:29:57;;;;;;;4.80;3.85;;;;;;;;;;5095490;28;20114;-73
2022/08/28 11:32:32;;;;;;;4.47;3.80;;;;;;;;;;5093404;28;20023;-73
2022/08/28 11:35:03;;;;;;;4.65;3.92;;;;;;;;;;5093177;28;20201;-73
2022/08/28 11:37:39;;;;;;;5.88;4.35;;;;;;;;;;5097584;28;20024;-72
2022/08/28 11:40:14;;;;;;;4.75;4.30;;;;;;;;;;5085980;28;20601;-73
2022/08/28 11:42:40;;;;;;;5.28;4.05;;;;;;;;;;5087532;28;20024;-73
2022/08/28 11:45:07;;;;;;;5.40;4.20;;;;;;;;;;5093360;28;20376;-72
2022/08/28 11:47:36;;;;;;;4.85;4.05;;;;;;;;;;5090219;28;20093;-73
2022/08/28 11:50:04;;;;;;;4.35;3.67;;;;;;;;;;5092858;28;20019;-73
2022/08/28 11:53:09;;;;;;;5.82;3.50;;;;;;;;;;5092521;28;20093;-72
2022/08/28 11:55:46;;;;;;;4.60;3.53;;;;;;;;;;4993670;28;20461;-73
2022/08/28 11:58:12;;;;;;;4.13;3.72;;;;;;;;;;4993908;28;20036;-73
2022/08/28 12:00:41;;;;;;;4.18;3.75;;;;;;;;;;5051062;28;20103;-73
2022/08/28 12:03:13;;;;;;;4.40;3.47;;;;;;;;;;5094010;28;20114;-73
2022/08/28 12:05:40;;;;;;;3.90;3.60;;;;;;;;;;5097302;28;20047;-73
2022/08/28 12:08:09;;;;;;;5.82;3.50;;;;;;;;;;5088982;28;20100;-73
2022/08/28 12:10:55;;;;;;;4.07;3.67;;;;;;;;;;5091403;28;20047;-72
2022/08/28 12:13:40;;;;;;;4.40;3.15;;;;;;;;;;5086773;28;20027;-73
2022/08/28 12:16:07;;;;;;;5.60;3.95;;;;;;;;;;5093154;28;20026;-73
2022/08/28 12:18:41;;;;;;;4.90;3.83;;;;;;;;;;5083740;28;20115;-73
2022/08/28 12:21:13;;;;;;;5.00;3.75;;;;;;;;;;5087911;28;20028;-73
2022/08/28 12:23:44;;;;;;;6.30;4.18;;;;;;;;;;5088703;28;20173;-73
2022/08/28 12:26:19;;;;;;;8.73;4.40;;;;;;;;;;5087743;28;20052;-73
2022/08/28 12:28:45;;;;;;;5.75;4.38;;;;;;;;;;5083030;28;20032;-73
2022/08/28 12:32:09;;;;;;;7.28;4.15;;;;;;;;;;5067838;28;20637;-73
2022/08/28 12:34:10;;;;;;;6.18;3.80;;;;;;;;;;5082759;28;20032;-73
2022/08/28 12:36:36;;;;;;;6.07;3.40;;;;;;;;;;5081493;28;20035;-73
2022/08/28 12:39:02;;;;;;;4.82;3.50;;;;;;;;;;5066924;28;20517;-73
2022/08/28 12:41:29;;;;;;;4.50;3.65;;;;;;;;;;5088506;28;20054;-73
2022/08/28 12:43:58;;;;;;;3.90;3.60;;;;;;;;;;5088899;28;20027;-73
2022/08/28 12:46:29;;;;;;;6.10;3.92;;;;;;;;;;5087253;28;20115;-75
2022/08/28 12:49:02;;;;;;;4.15;3.55;;;;;;;;;;5084128;28;20121;-75
2022/08/28 12:51:33;;;;;;;5.88;3.95;;;;;;;;;;5097686;28;20027;-73
2022/08/28 12:54:01;;;;;;;5.07;3.80;;;;;;;;;;5086471;28;20058;-72
2022/08/28 12:56:28;;;;;;;4.63;3.63;;;;;;;;;;5088795;28;20051;-73
2022/08/28 12:58:55;;;;;;;4.10;3.70;;;;;;;;;;5092893;28;20353;-72
2022/08/28 13:01:28;;;;;;;6.55;3.58;;;;;;;;;;5088665;28;20218;-73
2022/08/28 13:03:59;;;;;;;6.57;3.88;;;;;;;;;;5088295;28;20126;-73
2022/08/28 13:06:30;;;;;;;6.28;4.20;;;;;;;;;;5079687;28;20024;-73
2022/08/28 13:08:56;;;;;;;;;;;;;;;;;;5085386;28;20127;-72
2022/08/28 13:11:23;;;;;;;4.13;3.72;;;;;;;;;;5072193;28;19920;-73
2022/08/28 13:13:49;;;;;;;3.83;3.42;;;;;;;;;;5094764;28;20515;-72
2022/08/28 13:16:36;;;;;;;5.95;3.83;;;;;;;;;;5087753;28;20387;-73
2022/08/28 13:19:05;;;;;;;4.55;3.58;;;;;;;;;;5061405;28;20037;-73
2022/08/28 13:21:36;;;;;;;4.50;3.50;;;;;;;;;;5088543;28;20181;-73
2022/08/28 13:24:34;;;;;;;4.53;4.05;;;;;;;;;;5086716;28;20024;-73
2022/08/28 13:27:09;;;;;;;5.38;4.30;;;;;;;;;;5053894;28;20604;-73
2022/08/28 13:29:36;;;;;;;4.43;3.90;;;;;;;;;;5093180;28;20823;-73
2022/08/28 13:32:14;;;;;;;5.13;4.18;;;;;;;;;;5092520;28;20023;-72
2022/08/28 13:34:40;;;;;;;4.40;4.00;;;;;;;;;;5087661;28;20028;-73
2022/08/28 13:37:07;;;;;;;5.55;4.45;;;;;;;;;;5089690;28;20131;-73
2022/08/28 13:39:34;;;;;;;6.75;4.50;;;;;;;;;;5089760;28;20106;-73
2022/08/28 13:42:12;;;;;;;6.72;4.40;;;;;;;;;;5084767;28;20046;-72
2022/08/28 13:44:49;;;;;;;4.35;3.80;;;;;;;;;;5090253;28;20393;-73
2022/08/28 13:47:16;;;;;;;6.80;4.25;;;;;;;;;;5090092;28;20032;-73
2022/08/28 13:49:42;;;;;;;5.68;4.32;;;;;;;;;;5085786;27;20031;-72
2022/08/28 13:52:09;;;;;;;6.35;4.15;;;;;;;;;;5090700;28;20023;-73
2022/08/28 13:54:36;;;;;;;5.03;4.50;;;;;;;;;;5086643;28;20024;-73
2022/08/28 13:57:03;;;;;;;5.40;4.68;;;;;;;;;;5087494;28;20457;-73
2022/08/28 13:59:29;;;;;;;4.38;3.83;;;;;;;;;;5087169;28;20035;-74
2022/08/28 14:04:43;;;;;;;5.70;4.00;;;;;;;;;;5088605;28;20759;-73
2022/08/28 14:07:10;;;;;;;8.15;4.40;;;;;;;;;;5084139;28;20647;-72
2022/08/28 14:09:37;;;;;;;4.57;3.92;;;;;;;;;;5089474;28;20531;-73
2022/08/28 14:12:04;;;;;;;5.55;3.95;;;;;;;;;;5086625;28;20020;-73
2022/08/28 14:14:31;;;;;;;4.65;4.25;;;;;;;;;;5095080;28;20666;-72
2022/08/28 14:16:59;;;;;;;5.82;4.28;;;;;;;;;;5089647;28;20438;-74
2022/08/28 14:19:25;;;;;;;5.38;4.13;;;;;;;;;;5075717;28;20773;-73
2022/08/28 14:21:53;;;;;;;6.25;4.53;;;;;;;;;;5091358;28;20446;-72
2022/08/28 14:24:19;;;;;;;6.10;4.22;;;;;;;;;;5094189;28;20070;-73
2022/08/28 14:26:46;;;;;;;6.57;4.25;;;;;;;;;;5084591;28;20012;-73
2022/08/28 14:29:14;;;;;;;5.70;3.90;;;;;;;;;;5091678;28;20769;-73
2022/08/28 14:31:42;;;;;;;4.47;4.03;;;;;;;;;;5090056;28;20480;-73
2022/08/28 14:34:09;;;;;;;6.43;3.85;;;;;;;;;;5089568;28;20610;-73
2022/08/28 14:36:36;;;;;;;5.05;4.03;;;;;;;;;;5091941;28;20519;-72
2022/08/28 14:39:04;;;;;;;7.35;4.63;;;;;;;;;;5086697;28;20035;-73
2022/08/28 14:41:30;;;;;;;6.75;4.72;;;;;;;;;;5087435;28;20051;-72
2022/08/28 14:43:57;;;;;;;5.80;4.32;;;;;;;;;;5094370;28;20578;-72
2022/08/28 14:46:34;;;;;;;5.60;4.07;;;;;;;;;;5088561;28;20106;-73
2022/08/28 14:49:03;;;;;;;4.82;4.28;;;;;;;;;;5089094;28;20644;-73
2022/08/28 14:51:30;;;;;;;5.55;4.72;;;;;;;;;;5087921;28;20100;-72
2022/08/28 14:53:57;;;;;;;8.15;4.53;;;;;;;;;;5089451;28;20027;-73
2022/08/28 14:56:23;;;;;;;5.03;4.53;;;;;;;;;;5086386;28;20055;-72
2022/08/28 14:58:50;;;;;;;6.43;4.70;;;;;;;;;;5089818;28;20031;-72
2022/08/28 15:01:23;;;;;;;6.25;4.63;;;;;;;;;;5086295;28;20032;-73
2022/08/28 15:03:50;;;;;;;6.50;4.22;;;;;;;;;;5085625;28;20062;-73